createdAt,value
2022-08-30T00:00:26.904Z,19.50
2022-08-30T00:02:55.141Z,20.20
2022-08-30T00:05:23.176Z,19.40
2022-08-30T00:07:51.288Z,19.40
2022-08-30T00:10:19.425Z,19.40
2022-08-30T00:12:48.975Z,19.40
2022-08-30T00:15:18.552Z,19.40
2022-08-30T00:17:49.444Z,19.30
2022-08-30T00:20:21.719Z,19.30
2022-08-30T00:22:49.772Z,19.30
2022-08-30T00:25:17.935Z,19.20
2022-08-30T00:27:46.174Z,19.20
2022-08-30T00:30:17.595Z,19.40
2022-08-30T00:32:45.641Z,19.00
2022-08-30T00:35:16.538Z,19.00
2022-08-30T00:37:45.188Z,19.00
2022-08-30T00:40:16.036Z,19.00
2022-08-30T00:42:45.088Z,19.00
2022-08-30T00:45:22.889Z,18.90
2022-08-30T00:47:51.304Z,19.00
2022-08-30T00:50:25.743Z,19.00
2022-08-30T00:52:56.603Z,18.80
2022-08-30T00:55:24.874Z,18.90
2022-08-30T00:57:57.479Z,18.80
2022-08-30T01:00:26.932Z,18.80
2022-08-30T01:02:55.022Z,18.90
2022-08-30T01:05:23.877Z,18.50
2022-08-30T01:07:52.044Z,18.80
2022-08-30T01:10:20.796Z,18.80
2022-08-30T01:12:49.026Z,18.80
2022-08-30T01:15:17.736Z,18.80
2022-08-30T01:17:49.431Z,18.60
2022-08-30T01:20:25.117Z,18.70
2022-08-30T01:23:07.493Z,18.70
2022-08-30T01:25:38.017Z,18.70
2022-08-30T01:28:08.396Z,18.60
2022-08-30T01:30:39.006Z,18.90
2022-08-30T01:33:08.269Z,18.50
2022-08-30T01:35:48.869Z,18.50
2022-08-30T01:38:19.505Z,18.80
2022-08-30T01:40:48.549Z,18.40
2022-08-30T01:43:17.993Z,18.50
2022-08-30T01:45:46.179Z,18.40
2022-08-30T01:48:14.302Z,18.40
2022-08-30T01:50:44.536Z,18.30
2022-08-30T01:53:13.427Z,18.00
2022-08-30T01:55:43.372Z,18.10
2022-08-30T01:58:11.766Z,18.10
2022-08-30T02:00:39.811Z,18.00
2022-08-30T02:03:08.607Z,18.00
2022-08-30T02:05:36.759Z,17.90
2022-08-30T02:08:05.103Z,17.90
2022-08-30T02:10:33.547Z,17.80
2022-08-30T02:13:03.118Z,17.80
2022-08-30T02:15:31.115Z,17.90
2022-08-30T02:18:10.648Z,17.70
2022-08-30T02:20:40.125Z,17.70
2022-08-30T02:23:08.298Z,17.70
2022-08-30T02:25:36.275Z,17.60
2022-08-30T02:28:05.949Z,17.60
2022-08-30T02:30:34.400Z,17.60
2022-08-30T02:33:02.690Z,17.60
2022-08-30T02:35:30.615Z,17.50
2022-08-30T02:37:58.629Z,17.50
2022-08-30T02:40:26.751Z,17.40
2022-08-30T02:42:54.687Z,17.40
2022-08-30T02:45:24.383Z,17.30
2022-08-30T02:47:52.337Z,17.30
2022-08-30T02:50:20.544Z,17.20
2022-08-30T02:52:48.740Z,17.20
2022-08-30T02:55:17.936Z,17.20
2022-08-30T02:57:45.977Z,17.10
2022-08-30T03:00:17.145Z,17.10
2022-08-30T03:02:46.865Z,17.10
2022-08-30T03:05:17.289Z,17.00
2022-08-30T03:07:47.381Z,17.00
2022-08-30T03:10:16.735Z,17.00
2022-08-30T03:12:44.963Z,16.90
2022-08-30T03:15:13.989Z,16.90
2022-08-30T03:17:42.992Z,16.80
2022-08-30T03:20:15.490Z,16.70
2022-08-30T03:22:43.556Z,16.80
2022-08-30T03:25:12.023Z,16.80
2022-08-30T03:27:40.037Z,16.80
2022-08-30T03:30:09.605Z,16.70
2022-08-30T03:32:37.760Z,16.60
2022-08-30T03:35:06.824Z,16.70
2022-08-30T03:37:36.711Z,16.90
2022-08-30T03:40:05.769Z,16.60
2022-08-30T03:42:34.629Z,16.70
2022-08-30T03:45:03.755Z,16.60
2022-08-30T03:47:31.829Z,16.60
2022-08-30T03:49:59.969Z,16.60
2022-08-30T03:52:28.500Z,16.50
2022-08-30T03:54:57.879Z,16.50
2022-08-30T03:57:25.966Z,16.50
2022-08-30T03:59:54.052Z,16.50
2022-08-30T04:04:51.134Z,16.20
2022-08-30T04:07:20.262Z,16.40
2022-08-30T04:12:22.578Z,15.80
2022-08-30T04:22:15.817Z,16.30
2022-08-30T04:27:12.151Z,16.30
2022-08-30T04:29:41.688Z,16.20
2022-08-30T04:32:09.815Z,15.80
2022-08-30T04:37:07.076Z,16.10
2022-08-30T04:39:38.006Z,16.20
2022-08-30T04:42:06.933Z,16.10
2022-08-30T04:44:35.501Z,16.20
2022-08-30T04:47:05.140Z,16.20
2022-08-30T04:49:35.948Z,16.20
2022-08-30T04:52:06.323Z,16.20
2022-08-30T04:54:35.336Z,16.10
2022-08-30T05:02:01.381Z,16.10
2022-08-30T05:04:30.858Z,16.30
2022-08-30T05:06:58.999Z,16.10
2022-08-30T05:09:27.176Z,16.20
2022-08-30T05:11:55.172Z,16.10
2022-08-30T05:14:23.166Z,16.10
2022-08-30T05:16:52.835Z,16.20
2022-08-30T05:19:20.860Z,16.10
2022-08-30T05:21:50.310Z,16.50
2022-08-30T05:29:20.656Z,16.10
2022-08-30T05:31:48.683Z,16.30
2022-08-30T05:34:16.839Z,16.30
2022-08-30T05:36:44.975Z,16.60
2022-08-30T05:39:14.581Z,16.30
2022-08-30T05:41:42.653Z,16.40
2022-08-30T05:44:11.894Z,16.40
2022-08-30T05:46:46.047Z,16.50
2022-08-30T05:49:14.315Z,16.40
2022-08-30T05:51:43.374Z,16.50
2022-08-30T05:54:12.826Z,16.50
2022-08-30T05:56:44.437Z,16.50
2022-08-30T05:59:13.498Z,16.60
2022-08-30T06:01:43.890Z,16.70
2022-08-30T06:04:14.071Z,16.70
2022-08-30T06:06:43.824Z,16.50
2022-08-30T06:09:13.882Z,16.90
2022-08-30T06:11:43.937Z,16.90
2022-08-30T06:14:12.475Z,17.00
2022-08-30T06:16:41.591Z,17.10
2022-08-30T06:19:11.171Z,17.00
2022-08-30T06:21:40.606Z,17.20
2022-08-30T06:24:11.441Z,17.30
2022-08-30T06:26:42.088Z,17.50
2022-08-30T06:29:14.196Z,17.50
2022-08-30T06:31:42.878Z,17.50
2022-08-30T06:34:10.995Z,17.60
2022-08-30T06:36:39.575Z,18.00
2022-08-30T06:39:08.516Z,17.80
2022-08-30T06:41:39.686Z,17.90
2022-08-30T06:44:08.389Z,18.10
2022-08-30T06:46:40.098Z,18.20
2022-08-30T06:49:08.937Z,18.30
2022-08-30T06:51:40.004Z,20.00
2022-08-30T06:54:10.701Z,18.70
2022-08-30T06:56:40.287Z,18.50
2022-08-30T06:59:10.592Z,18.50
2022-08-30T07:01:40.092Z,18.60
2022-08-30T07:04:08.101Z,19.00
2022-08-30T07:06:36.184Z,19.40
2022-08-30T07:09:04.144Z,19.00
2022-08-30T07:11:34.611Z,19.10
2022-08-30T07:14:03.725Z,19.10
2022-08-30T07:16:32.295Z,19.20
2022-08-30T07:19:02.769Z,19.30
2022-08-30T07:21:34.370Z,19.40
2022-08-30T07:24:03.882Z,19.50
2022-08-30T07:26:36.069Z,20.00
2022-08-30T07:29:05.056Z,20.00
2022-08-30T07:31:34.666Z,20.10
2022-08-30T07:34:04.196Z,20.20
2022-08-30T07:36:32.207Z,20.20
2022-08-30T07:39:00.401Z,20.40
2022-08-30T07:41:31.703Z,20.60
2022-08-30T07:43:59.922Z,20.60
2022-08-30T07:46:28.892Z,20.80
2022-08-30T07:48:56.967Z,20.40
2022-08-30T07:51:28.756Z,20.70
2022-08-30T07:53:57.249Z,20.80
2022-08-30T07:56:25.979Z,20.90
2022-08-30T07:58:54.409Z,21.00
2022-08-30T08:01:23.577Z,21.10
2022-08-30T08:03:52.459Z,21.20
2022-08-30T08:06:23.303Z,21.40
2022-08-30T08:08:53.789Z,21.50
2022-08-30T08:11:28.434Z,21.70
2022-08-30T08:13:58.694Z,21.80
2022-08-30T08:16:29.110Z,22.10
2022-08-30T08:18:58.119Z,22.20
2022-08-30T08:21:27.392Z,22.50
2022-08-30T08:23:56.774Z,22.50
2022-08-30T08:26:24.811Z,22.70
2022-08-30T08:28:52.861Z,22.90
2022-08-30T08:31:27.250Z,23.10
2022-08-30T08:36:35.709Z,23.80
2022-08-30T08:39:07.024Z,23.60
2022-08-30T08:41:53.512Z,23.60
2022-08-30T08:44:34.816Z,23.60
2022-08-30T08:47:12.427Z,23.80
2022-08-30T08:49:45.881Z,23.80
2022-08-30T08:52:37.971Z,23.90
2022-08-30T08:55:11.249Z,24.00
2022-08-30T08:57:39.815Z,24.00
2022-08-30T09:00:09.426Z,23.90
2022-08-30T09:02:42.768Z,23.80
2022-08-30T09:05:15.285Z,23.90
2022-08-30T09:07:48.552Z,24.00
2022-08-30T09:10:29.935Z,24.10
2022-08-30T09:13:06.458Z,24.20
2022-08-30T09:15:35.753Z,24.30
2022-08-30T09:18:05.902Z,24.30
2022-08-30T09:20:49.706Z,24.30
2022-08-30T09:23:30.644Z,24.40
2022-08-30T09:26:01.743Z,24.60
2022-08-30T09:28:32.946Z,24.80
2022-08-30T09:31:11.868Z,25.00
2022-08-30T09:33:40.418Z,25.00
2022-08-30T09:36:17.222Z,25.10
2022-08-30T09:38:45.242Z,25.20
2022-08-30T09:41:37.434Z,25.20
2022-08-30T09:44:08.885Z,25.30
2022-08-30T09:46:45.643Z,25.20
2022-08-30T09:49:30.253Z,25.30
2022-08-30T09:52:18.611Z,25.40
2022-08-30T09:55:01.855Z,25.50
2022-08-30T09:57:39.869Z,25.70
2022-08-30T10:00:15.168Z,25.60
2022-08-30T10:02:58.594Z,26.00
2022-08-30T10:05:32.986Z,26.20
2022-08-30T10:08:13.583Z,26.50
2022-08-30T10:10:48.547Z,26.90
2022-08-30T10:13:37.917Z,27.10
2022-08-30T10:16:13.577Z,27.20
2022-08-30T10:18:49.797Z,27.20
2022-08-30T10:21:25.314Z,27.30
2022-08-30T10:23:58.436Z,27.40
2022-08-30T10:26:33.678Z,27.50
2022-08-30T10:29:07.865Z,27.70
2022-08-30T10:31:42.824Z,27.70
2022-08-30T10:34:15.598Z,27.90
2022-08-30T10:36:47.206Z,27.80
2022-08-30T10:39:22.211Z,27.90
2022-08-30T10:41:54.532Z,28.00
2022-08-30T10:44:27.843Z,28.00
2022-08-30T10:47:06.085Z,28.40
2022-08-30T10:49:40.529Z,28.40
2022-08-30T10:52:23.890Z,28.40
2022-08-30T10:54:59.770Z,28.30
2022-08-30T10:57:28.628Z,28.20
2022-08-30T11:00:02.780Z,28.40
2022-08-30T11:03:11.868Z,28.50
2022-08-30T11:06:04.974Z,28.70
2022-08-30T11:08:42.706Z,28.70
2022-08-30T11:11:20.745Z,28.60
2022-08-30T11:13:54.592Z,28.80
2022-08-30T11:16:38.304Z,28.80
2022-08-30T11:19:15.944Z,28.80
2022-08-30T11:21:47.265Z,28.70
2022-08-30T11:24:18.158Z,28.70
2022-08-30T11:26:57.380Z,28.90
2022-08-30T11:29:38.695Z,26.30
2022-08-30T11:32:58.911Z,29.30
2022-08-30T11:35:38.849Z,29.40
2022-08-30T11:38:21.693Z,29.40
2022-08-30T11:41:06.905Z,29.80
2022-08-30T11:43:56.059Z,30.10
2022-08-30T11:46:40.313Z,30.20
2022-08-30T11:49:46.224Z,30.50
2022-08-30T11:52:35.331Z,30.20
2022-08-30T11:55:37.705Z,30.20
2022-08-30T11:58:23.605Z,30.10
2022-08-30T12:01:40.782Z,30.30
2022-08-30T12:04:09.937Z,30.40
2022-08-30T12:06:53.056Z,30.80
2022-08-30T12:10:05.998Z,30.60
2022-08-30T12:12:57.824Z,30.70
2022-08-30T12:15:55.967Z,31.00
2022-08-30T12:18:30.086Z,30.80
2022-08-30T12:21:05.341Z,30.70
2022-08-30T12:23:44.796Z,30.90
2022-08-30T12:26:20.219Z,31.10
2022-08-30T12:28:51.219Z,31.00
2022-08-30T12:31:23.595Z,31.20
2022-08-30T12:33:56.589Z,31.00
2022-08-30T12:36:38.841Z,30.90
2022-08-30T12:39:19.526Z,31.20
2022-08-30T12:41:47.557Z,31.20
2022-08-30T12:44:22.550Z,31.10
2022-08-30T12:46:58.479Z,31.00
2022-08-30T12:49:29.780Z,31.10
2022-08-30T12:52:16.138Z,31.10
2022-08-30T12:54:45.365Z,31.20
2022-08-30T12:57:32.292Z,31.30
2022-08-30T13:00:09.721Z,31.10
2022-08-30T13:02:48.124Z,31.40
2022-08-30T13:05:41.710Z,31.40
2022-08-30T13:08:16.957Z,31.70
2022-08-30T13:10:56.114Z,31.80
2022-08-30T13:13:31.542Z,31.50
2022-08-30T13:16:12.595Z,31.50
2022-08-30T13:18:41.226Z,31.60
2022-08-30T13:21:21.375Z,31.80
2022-08-30T13:23:49.697Z,32.10
2022-08-30T13:26:23.247Z,31.90
2022-08-30T13:28:53.152Z,32.10
2022-08-30T13:31:23.021Z,32.40
2022-08-30T13:33:53.184Z,32.50
2022-08-30T13:36:23.034Z,32.50
2022-08-30T13:38:52.966Z,32.50
2022-08-30T13:41:21.386Z,32.50
2022-08-30T13:46:42.080Z,32.90
2022-08-30T13:52:20.372Z,32.90
2022-08-30T13:54:50.025Z,32.80
2022-08-30T13:57:53.473Z,33.00
2022-08-30T14:00:12.219Z,33.30
2022-08-30T14:02:45.286Z,33.80
2022-08-30T14:05:47.219Z,34.50
2022-08-30T14:08:04.634Z,34.60
2022-08-30T14:10:45.657Z,34.70
2022-08-30T14:13:15.144Z,34.70
2022-08-30T14:15:43.206Z,34.20
2022-08-30T14:18:17.182Z,34.70
2022-08-30T14:20:47.624Z,34.90
2022-08-30T14:23:15.887Z,34.40
2022-08-30T14:25:43.938Z,34.70
2022-08-30T14:28:12.166Z,35.00
2022-08-30T14:30:43.534Z,35.30
2022-08-30T14:33:13.392Z,35.10
2022-08-30T14:35:41.520Z,35.60
2022-08-30T14:38:11.207Z,36.00
2022-08-30T14:40:40.268Z,35.80
2022-08-30T14:43:08.309Z,35.80
2022-08-30T14:45:38.486Z,36.20
2022-08-30T14:48:11.600Z,36.50
2022-08-30T14:50:41.706Z,37.00
2022-08-30T14:53:09.843Z,36.60
2022-08-30T14:55:37.816Z,36.70
2022-08-30T14:58:06.847Z,36.50
2022-08-30T15:00:34.887Z,36.30
2022-08-30T15:03:03.876Z,36.90
2022-08-30T15:05:32.543Z,36.70
2022-08-30T15:08:02.267Z,36.80
2022-08-30T15:10:30.369Z,37.20
2022-08-30T15:12:58.391Z,36.90
2022-08-30T15:15:26.498Z,36.80
2022-08-30T15:17:54.568Z,36.60
2022-08-30T15:20:22.560Z,35.40
2022-08-30T15:22:50.548Z,34.80
2022-08-30T15:25:21.844Z,34.10
2022-08-30T15:27:50.034Z,33.50
2022-08-30T15:30:20.320Z,32.50
2022-08-30T15:32:48.481Z,32.70
2022-08-30T15:35:16.721Z,32.70
2022-08-30T15:37:44.655Z,33.80
2022-08-30T15:40:12.996Z,34.40
2022-08-30T15:42:42.472Z,34.80
2022-08-30T15:45:11.907Z,35.00
2022-08-30T15:47:40.150Z,34.70
2022-08-30T15:50:09.255Z,34.70
2022-08-30T15:52:37.180Z,35.10
2022-08-30T15:55:05.823Z,35.70
2022-08-30T15:57:34.046Z,35.50
2022-08-30T16:00:06.441Z,36.00
2022-08-30T16:02:34.703Z,35.60
2022-08-30T16:05:03.721Z,35.20
2022-08-30T16:07:31.957Z,35.00
2022-08-30T16:10:00.202Z,35.10
2022-08-30T16:12:28.182Z,35.20
2022-08-30T16:14:56.298Z,35.10
2022-08-30T16:17:25.697Z,34.30
2022-08-30T16:19:58.476Z,33.60
2022-08-30T16:22:26.832Z,33.30
2022-08-30T16:24:55.091Z,33.20
2022-08-30T16:27:24.895Z,33.30
2022-08-30T16:29:53.298Z,33.40
2022-08-30T16:32:22.271Z,33.50
2022-08-30T16:34:53.370Z,32.80
2022-08-30T16:37:21.402Z,32.70
2022-08-30T16:39:49.539Z,32.60
2022-08-30T16:42:21.022Z,32.20
2022-08-30T16:44:50.152Z,31.80
2022-08-30T16:47:18.459Z,31.80
2022-08-30T16:49:46.456Z,31.40
2022-08-30T16:52:15.942Z,31.10
2022-08-30T16:54:46.601Z,30.90
2022-08-30T16:59:50.826Z,30.50
2022-08-30T17:02:20.607Z,30.50
2022-08-30T17:04:53.067Z,30.70
2022-08-30T17:07:22.835Z,30.30
2022-08-30T17:09:50.881Z,30.20
2022-08-30T17:12:18.927Z,30.10
2022-08-30T17:14:47.437Z,29.90
2022-08-30T17:17:15.639Z,29.70
2022-08-30T17:19:44.481Z,29.70
2022-08-30T17:22:14.210Z,29.60
2022-08-30T17:24:43.684Z,29.50
2022-08-30T17:27:12.026Z,29.40
2022-08-30T17:29:40.051Z,29.20
2022-08-30T17:32:08.259Z,29.10
2022-08-30T17:34:37.068Z,28.90
2022-08-30T17:37:05.501Z,28.80
2022-08-30T17:39:33.533Z,28.60
2022-08-30T17:42:03.107Z,28.50
2022-08-30T17:44:34.335Z,28.50
2022-08-30T17:47:02.817Z,28.30
2022-08-30T17:49:33.192Z,28.20
2022-08-30T17:52:02.562Z,27.70
2022-08-30T17:54:32.639Z,28.00
2022-08-30T17:57:10.721Z,28.00
2022-08-30T17:59:40.132Z,27.90
2022-08-30T18:02:11.258Z,27.80
2022-08-30T18:04:41.719Z,27.70
2022-08-30T18:07:11.802Z,27.70
2022-08-30T18:09:41.049Z,27.60
2022-08-30T18:12:10.953Z,27.40
2022-08-30T18:14:39.635Z,27.30
2022-08-30T18:17:08.237Z,27.20
2022-08-30T18:19:46.271Z,27.10
2022-08-30T18:22:15.374Z,27.00
2022-08-30T18:24:43.530Z,26.90
2022-08-30T18:27:13.377Z,26.80
2022-08-30T18:29:41.981Z,26.80
2022-08-30T18:32:11.572Z,26.70
2022-08-30T18:34:42.858Z,26.30
2022-08-30T18:37:12.575Z,26.50
2022-08-30T18:39:41.254Z,26.50
2022-08-30T18:42:12.614Z,26.30
2022-08-30T18:44:45.336Z,26.30
2022-08-30T18:47:13.701Z,26.20
2022-08-30T18:49:42.627Z,26.10
2022-08-30T18:52:12.124Z,26.10
2022-08-30T18:54:42.453Z,26.30
2022-08-30T18:57:11.266Z,26.00
2022-08-30T18:59:39.511Z,25.90
2022-08-30T19:02:14.575Z,25.90
2022-08-30T19:04:47.096Z,25.90
2022-08-30T19:07:17.990Z,25.80
2022-08-30T19:09:46.873Z,25.70
2022-08-30T19:12:15.310Z,26.00
2022-08-30T19:14:44.168Z,25.60
2022-08-30T19:17:14.295Z,25.60
2022-08-30T19:19:49.299Z,25.50
2022-08-30T19:22:20.656Z,25.50
2022-08-30T19:24:49.815Z,25.50
2022-08-30T19:27:19.010Z,25.40
2022-08-30T19:29:53.134Z,25.40
2022-08-30T19:32:23.396Z,25.30
2022-08-30T19:34:51.566Z,25.40
2022-08-30T19:37:21.405Z,25.20
2022-08-30T19:39:49.465Z,25.10
2022-08-30T19:42:17.490Z,25.00
2022-08-30T19:44:45.470Z,25.00
2022-08-30T19:47:14.609Z,24.90
2022-08-30T19:49:44.045Z,24.80
2022-08-30T19:52:12.399Z,24.70
2022-08-30T19:54:41.323Z,24.70
2022-08-30T19:57:10.403Z,24.70
2022-08-30T19:59:38.976Z,24.60
2022-08-30T20:02:07.691Z,24.60
2022-08-30T20:04:35.841Z,24.60
2022-08-30T20:07:13.562Z,24.50
2022-08-30T20:09:42.140Z,24.50
2022-08-30T20:12:10.203Z,24.50
2022-08-30T20:14:38.209Z,24.70
2022-08-30T20:17:06.752Z,24.40
2022-08-30T20:19:39.866Z,24.40
2022-08-30T20:22:09.889Z,24.40
2022-08-30T20:24:38.509Z,24.40
2022-08-30T20:27:07.759Z,24.30
2022-08-30T20:29:35.745Z,24.30
2022-08-30T20:32:04.266Z,24.20
2022-08-30T20:34:32.418Z,24.20
2022-08-30T20:37:00.453Z,24.10
2022-08-30T20:39:30.179Z,24.10
2022-08-30T20:41:58.240Z,24.10
2022-08-30T20:44:26.300Z,24.00
2022-08-30T20:46:54.336Z,24.00
2022-08-30T20:49:22.681Z,24.00
2022-08-30T20:51:54.488Z,24.00
2022-08-30T20:54:22.748Z,23.90
2022-08-30T20:56:52.413Z,23.60
2022-08-30T20:59:21.035Z,24.20
2022-08-30T21:01:50.018Z,23.90
2022-08-30T21:04:18.764Z,23.80
2022-08-30T21:06:47.063Z,23.80
2022-08-30T21:09:15.342Z,23.80
2022-08-30T21:11:44.416Z,23.80
2022-08-30T21:14:14.510Z,23.80
2022-08-30T21:16:42.725Z,23.60
2022-08-30T21:19:10.833Z,23.20
2022-08-30T21:21:38.910Z,23.70
2022-08-30T21:24:10.584Z,23.70
2022-08-30T21:26:38.891Z,24.00
2022-08-30T21:29:07.325Z,23.60
2022-08-30T21:31:38.812Z,23.60
2022-08-30T21:34:07.678Z,23.60
2022-08-30T21:36:48.150Z,23.10
2022-08-30T21:39:20.218Z,23.50
2022-08-30T21:41:49.235Z,23.50
2022-08-30T21:44:19.842Z,23.40
2022-08-30T21:46:50.666Z,23.80
2022-08-30T21:49:21.249Z,23.30
2022-08-30T21:51:51.281Z,23.30
2022-08-30T21:54:19.844Z,23.30
2022-08-30T21:56:49.877Z,23.30
2022-08-30T21:59:19.459Z,23.20
2022-08-30T22:01:50.275Z,23.20
2022-08-30T22:04:21.028Z,23.20
2022-08-30T22:06:53.726Z,23.20
2022-08-30T22:09:24.455Z,23.20
2022-08-30T22:11:52.699Z,23.30
2022-08-30T22:14:21.516Z,23.30
2022-08-30T22:16:51.255Z,23.80
2022-08-30T22:19:27.062Z,23.30
2022-08-30T22:29:02.518Z,23.30
2022-08-30T22:31:30.458Z,23.30
2022-08-30T22:33:59.817Z,23.30
2022-08-30T22:36:32.804Z,23.20
2022-08-30T22:39:03.149Z,23.20
2022-08-30T22:41:33.942Z,23.20
2022-08-30T22:44:02.990Z,23.20
2022-08-30T22:46:34.545Z,23.20
2022-08-30T22:49:05.064Z,23.20
2022-08-30T22:51:33.612Z,23.20
2022-08-30T22:54:02.156Z,23.20
2022-08-30T22:56:31.732Z,23.30
2022-08-30T22:58:59.598Z,23.10
2022-08-30T23:01:30.129Z,23.10
2022-08-30T23:03:58.903Z,23.00
2022-08-30T23:06:28.576Z,23.00
2022-08-30T23:08:56.636Z,22.90
2022-08-30T23:11:25.301Z,22.80
2022-08-30T23:13:53.801Z,22.70
2022-08-30T23:16:22.724Z,22.60
2022-08-30T23:18:51.137Z,22.60
2022-08-30T23:21:21.753Z,22.60
2022-08-30T23:24:10.082Z,22.50
2022-08-30T23:26:56.215Z,22.50
2022-08-30T23:29:41.863Z,22.50
2022-08-30T23:32:27.694Z,22.50
2022-08-30T23:35:13.311Z,22.50
2022-08-30T23:37:58.985Z,22.60
2022-08-30T23:40:45.794Z,22.60
2022-08-30T23:43:31.448Z,22.60
2022-08-30T23:46:19.320Z,22.70
2022-08-30T23:49:05.175Z,22.60
2022-08-30T23:51:51.137Z,22.60
2022-08-30T23:54:36.688Z,22.50
2022-08-30T23:57:24.621Z,22.40
